Date,TemperatureHighF,TemperatureAvgF,TemperatureLowF,DewpointHighF,DewpointAvgF,DewpointLowF,HumidityHigh,HumidityAvg,HumidityLow,PressureMaxIn,PressureMinIn,WindSpeedMaxMPH,WindSpeedAvgMPH,GustSpeedMaxMPH,PrecipitationSumIn
2013-1-1,67.3,39.9,29.3,49.6,36.2,28.8,99,89,43,30.33,30.19,4,1,4,0.01
2013-1-2,70.3,37.0,26.6,50.3,33.0,26.1,99,88,34,30.21,30.07,5,1,5,0.00
2013-1-3,56.3,41.0,27.5,48.9,38.2,26.9,99,91,65,30.27,30.03,20,4,20,0.09
2013-1-4,62.8,46.5,38.5,59.2,45.4,38.1,99,96,68,30.30,30.13,8,1,8,0.02
2013-1-5,49.8,43.2,37.8,49.0,42.7,37.5,99,98,83,30.19,29.56,20,1,20,0.12
2013-1-6,57.7,48.4,42.4,47.2,44.6,42.2,99,87,66,30.19,30.13,17,4,17,0.06
2013-1-7,52.0,49.5,45.9,51.7,49.0,44.8,99,98,95,30.26,30.12,20,6,20,0.17
2013-1-8,55.9,51.5,47.5,54.9,49.8,45.9,99,94,86,30.26,29.98,30,10,30,0.01
2013-1-9,58.1,45.5,36.9,49.2,42.7,36.0,98,90,61,30.03,29.83,29,8,29,0.37
2013-1-10,50.2,39.1,35.2,46.2,37.7,35.0,99,95,81,30.20,30.02,15,4,15,0.28
2013-1-11,62.2,40.0,31.5,52.0,37.1,30.7,99,91,42,30.30,30.06,9,2,9,0.04
2013-1-12,45.5,35.2,30.2,41.6,33.8,30.0,99,95,73,30.30,30.12,6,0,6,0.01
2013-1-13,58.5,38.2,27.5,39.4,29.2,24.3,99,74,30,30.44,30.23,8,2,8,0.00
2013-1-14,63.5,34.9,25.2,40.4,28.1,24.2,98,82,27,30.53,30.43,9,2,9,0.01
2013-1-15,66.2,37.8,26.8,50.3,30.7,26.3,99,81,27,30.57,30.50,8,2,8,0.00
2013-1-16,79.3,40.9,27.0,52.4,31.5,23.4,99,79,14,30.52,30.34,6,1,6,0.01
2013-1-17,85.5,42.4,28.4,49.4,34.2,20.1,99,81,11,30.34,30.16,4,1,5,0.00
2013-1-18,70.7,40.5,27.3,54.2,35.7,26.8,99,86,35,30.24,30.17,8,2,8,0.01
2013-1-19,65.3,40.6,26.2,55.1,36.3,25.8,99,87,39,30.28,30.18,8,2,8,0.00
2013-1-20,73.4,40.9,27.9,47.0,34.4,-23.3,99,84,2,30.26,25.70,4,1,4,0.01
2013-1-21,75.0,39.7,25.7,52.7,33.3,25.0,99,83,22,30.19,30.05,4,1,4,0.01
2013-1-22,73.6,41.9,27.7,50.7,37.8,27.2,99,88,32,30.06,29.88,8,1,8,0.00
2013-1-23,47.5,43.6,40.8,47.0,43.2,39.9,99,98,94,30.16,29.83,13,1,13,0.17
2013-1-24,66.2,47.5,36.1,57.0,44.7,35.9,99,91,62,30.16,30.02,16,4,16,0.06
2013-1-25,53.8,48.2,39.4,52.9,47.7,39.1,99,98,96,30.14,30.00,18,6,18,0.09
2013-1-26,61.2,44.4,38.3,52.9,42.7,38.0,99,94,59,30.13,29.99,11,2,11,0.17
2013-1-27,47.7,42.1,37.0,46.0,41.2,25.0,99,97,86,30.37,30.11,15,3,15,0.83
2013-1-28,50.9,45.1,41.9,48.4,44.3,41.6,99,97,85,30.35,30.16,15,3,15,0.14
2013-1-29,54.1,46.3,43.0,50.3,45.0,33.5,99,95,69,30.54,30.35,10,3,10,0.28
2013-1-30,54.5,44.6,38.7,50.8,43.3,38.4,99,96,78,30.56,30.45,7,1,7,0.01
2013-1-31,69.3,44.5,34.0,54.8,40.1,33.7,99,87,45,30.46,30.31,11,2,11,0.01
2013-2-1,79.3,46.0,31.6,53.2,39.0,31.4,99,83,24,30.32,30.13,8,2,8,0.00
2013-2-2,64.9,44.4,31.1,57.0,40.9,30.9,99,89,54,30.33,30.19,14,2,14,0.00
2013-2-3,56.5,48.6,40.6,48.5,44.6,39.6,98,87,63,30.33,30.21,8,1,8,0.00
2013-2-4,63.7,44.9,35.1,47.5,41.4,34.8,99,88,49,30.22,29.99,20,4,20,0.00
2013-2-5,57.7,48.6,41.9,49.2,45.2,41.1,99,88,68,30.11,29.94,27,9,27,0.27
2013-2-6,55.4,46.8,39.4,48.4,43.6,38.4,99,89,67,30.13,29.89,36,7,36,0.43
2013-2-7,46.6,38.6,33.8,42.3,37.6,33.5,99,96,82,30.10,29.98,16,3,16,0.60
2013-2-8,60.3,40.4,30.2,52.9,36.3,30.0,99,87,48,30.28,30.10,16,2,16,0.01
2013-2-9,61.2,42.1,30.4,45.8,37.5,29.6,99,86,44,30.30,30.00,8,1,8,0.00
2013-2-10,53.2,43.5,38.5,47.6,41.3,38.0,98,93,65,30.30,30.27,7,1,7,0.00
2013-2-11,67.3,52.0,43.5,45.0,39.7,30.7,96,67,30,30.42,30.30,11,3,11,0.01
2013-2-12,59.7,49.5,45.5,53.6,47.3,44.9,98,92,77,30.52,30.42,8,2,8,0.06
2013-2-13,58.3,47.7,44.1,52.5,45.8,43.0,99,93,82,30.50,30.45,8,1,8,0.00
2013-2-14,70.2,51.8,38.5,51.9,44.3,37.7,99,79,39,30.51,30.38,13,2,13,0.01
2013-2-15,80.2,51.8,36.3,51.7,41.7,34.5,99,76,24,30.38,30.18,12,3,12,0.00
2013-2-16,63.1,48.4,41.7,50.0,44.4,32.5,98,87,53,30.32,30.25,16,2,16,0.04
2013-2-17,64.6,44.3,31.5,46.9,37.3,30.0,99,80,32,30.30,30.06,15,2,15,0.01
2013-2-18,50.9,42.4,30.4,43.0,38.0,29.4,99,85,66,30.06,29.72,24,6,24,0.02
2013-2-19,55.2,42.4,35.8,46.4,39.2,35.0,99,89,66,30.02,29.62,14,3,14,0.40
2013-2-20,52.0,42.1,35.2,45.2,39.5,34.7,99,91,71,30.14,30.01,14,3,14,0.17
2013-2-21,47.5,45.1,43.7,44.0,41.6,40.1,97,88,79,30.25,30.22,13,5,13,0.04
2013-2-22,50.0,45.3,39.2,46.3,43.8,38.7,99,95,83,30.25,30.03,35,10,35,0.37
2013-2-23,58.8,42.6,35.8,50.3,39.2,34.8,99,89,49,30.46,30.19,18,3,18,0.18
2013-2-24,56.3,37.9,30.7,46.2,36.3,30.2,99,94,53,30.45,30.17,18,2,18,0.01
2013-2-25,59.5,44.8,32.5,46.2,39.5,31.5,99,84,43,30.42,30.15,21,5,21,0.17
2013-2-26,63.3,40.4,28.4,46.3,34.2,27.9,98,82,30,30.41,30.25,12,2,12,0.00
2013-2-27,61.0,49.0,40.5,51.3,44.7,37.5,99,87,52,30.29,30.21,18,4,18,0.11
2013-2-28,69.3,53.1,51.6,55.4,52.4,36.2,99,97,43,30.49,30.22,23,10,23,0.04
2013-3-1,63.9,53.6,48.2,55.1,50.6,42.8,99,91,68,30.48,30.31,14,3,14,0.01
2013-3-2,57.0,50.9,45.7,52.4,48.2,43.9,99,91,71,30.32,30.21,13,2,13,0.00
2013-3-3,65.3,45.0,30.7,44.1,36.8,29.4,98,78,28,30.28,30.15,16,3,16,0.01
2013-3-4,68.9,41.5,28.4,46.8,36.1,27.7,99,84,40,30.15,29.86,21,4,21,0.00
2013-3-5,45.5,42.8,37.6,44.2,42.1,35.2,99,97,92,29.87,29.57,26,2,26,0.72
2013-3-6,51.4,44.2,40.6,46.2,42.6,35.7,99,94,79,30.02,29.53,27,7,27,0.31
2013-3-7,67.5,42.5,30.7,51.9,37.0,30.3,99,84,33,30.22,29.95,15,2,15,0.01
2013-3-8,65.8,40.6,28.4,50.3,35.4,27.9,99,86,37,30.03,29.99,15,3,15,0.01
2013-3-9,75.0,49.2,34.2,46.5,40.3,33.1,98,76,30,30.48,30.30,14,3,14,0.00
2013-3-10,73.8,46.6,30.9,48.8,37.1,26.7,99,77,20,30.48,30.39,10,2,10,0.01
2013-3-11,74.3,53.1,43.7,53.1,47.7,42.6,99,85,42,30.42,30.24,15,2,15,0.01
2013-3-12,60.6,50.0,45.5,49.9,47.2,44.4,99,90,66,30.24,30.18,11,2,11,0.00
2013-3-13,70.3,52.9,46.6,52.7,47.5,45.6,97,84,47,30.23,30.12,13,3,13,0.00
2013-3-14,66.9,51.9,45.3,50.2,46.7,44.5,98,83,50,30.28,30.07,24,6,24,0.00
2013-3-15,68.0,54.0,48.0,53.1,49.2,46.3,97,85,56,30.48,30.19,12,2,12,0.00
2013-3-16,52.7,48.3,43.9,50.3,47.1,42.9,99,96,85,30.24,30.13,17,4,17,0.41
2013-3-17,63.9,44.8,33.4,46.4,37.9,30.7,99,81,32,30.33,30.23,15,2,15,0.02
2013-3-18,69.4,44.4,28.2,44.3,36.1,27.5,99,79,25,30.28,30.04,14,2,14,0.01
2013-3-19,64.4,50.1,42.1,51.3,45.3,35.9,98,86,44,30.05,29.68,27,5,27,0.48
2013-3-20,55.6,50.0,39.0,51.9,45.5,37.5,98,85,61,30.25,29.65,44,12,44,0.30
2013-3-21,61.5,43.7,36.7,45.4,38.5,33.5,99,84,41,30.38,30.25,13,3,13,0.09
2013-3-22,59.0,42.6,30.9,43.8,35.8,29.6,99,80,36,30.39,30.09,17,3,17,0.05
2013-3-23,61.7,41.5,27.7,40.8,32.9,26.9,98,76,32,30.38,30.13,18,3,18,0.01
2013-3-24,63.7,44.7,32.7,42.6,35.8,26.8,98,76,29,30.42,30.05,13,2,13,0.00
2013-3-25,61.3,45.9,33.8,45.6,40.5,32.8,98,83,52,30.05,29.94,13,2,13,0.00
2013-3-26,72.0,51.6,43.5,49.0,44.3,40.3,97,79,33,29.99,29.91,11,2,11,0.00
2013-3-27,61.2,52.1,44.6,54.0,47.9,43.1,98,87,68,30.22,29.88,21,4,21,0.05
2013-3-28,65.1,57.0,50.2,53.3,49.4,47.4,98,77,55,30.12,30.00,13,4,13,0.00
2013-3-29,74.3,55.3,45.0,56.6,49.8,43.3,98,84,44,30.14,30.07,13,2,13,0.01
2013-3-30,87.3,57.2,39.2,58.9,46.4,38.6,99,74,24,30.10,29.93,20,3,20,0.00
2013-3-31,64.6,54.6,49.3,57.0,51.2,35.3,100,89,68,30.30,29.50,14,3,14,0.01
2013-4-1,60.1,53.5,50.2,51.6,49.8,47.2,97,88,72,30.19,30.02,13,4,13,0.05
2013-4-2,72.0,53.5,49.1,53.7,48.1,42.6,95,83,45,30.22,30.01,13,3,13,0.00
2013-4-3,71.1,54.5,46.4,51.2,46.5,40.4,95,77,48,30.16,29.69,12,2,12,0.01
2013-4-4,57.0,53.4,51.1,52.7,49.5,47.6,91,87,81,29.92,29.69,30,10,30,0.45
2013-4-5,57.2,53.3,51.8,50.4,48.3,43.5,88,83,62,30.00,29.86,36,14,36,0.30
2013-4-6,59.9,53.1,50.2,51.0,45.6,34.0,90,77,43,30.27,29.75,46,14,46,0.30
2013-4-7,59.0,48.4,41.7,50.3,42.2,37.0,91,80,49,30.03,29.75,46,12,46,0.38
2013-4-8,61.0,47.8,37.4,51.0,30.1,2.5,92,60,10,30.30,30.03,16,3,16,0.08
2013-4-9,72.9,51.3,37.4,45.1,38.2,31.2,89,65,28,30.32,30.26,12,2,12,0.00
2013-4-10,59.9,49.1,38.7,49.5,41.5,33.6,87,76,54,30.34,30.26,16,4,16,0.04
2013-4-11,65.1,49.5,36.3,40.8,28.9,-3.2,83,54,10,30.35,30.15,20,4,20,0.00
2013-4-12,66.2,52.9,37.6,42.7,28.7,1.4,86,47,10,30.16,29.97,15,6,15,0.05
2013-4-13,61.5,47.9,36.5,46.2,25.3,-3.9,87,53,10,30.15,30.03,16,4,16,0.08
2013-4-14,59.2,44.7,35.8,40.1,34.2,29.5,88,69,39,30.15,29.95,15,3,15,0.12
2013-4-15,59.7,46.9,37.6,48.1,24.3,-1.6,85,52,10,30.20,29.97,17,4,17,0.24
2013-4-16,66.2,48.7,34.9,43.8,24.7,-5.4,83,47,10,30.41,30.20,17,4,17,0.05
2013-4-17,68.4,53.2,43.7,38.6,21.5,2.4,73,40,12,30.49,30.40,15,4,15,0.00
2013-4-18,69.6,63.3,46.6,68.5,38.9,8.6,100,58,13,30.47,30.40,15,6,15,0.00
2013-4-19,55.9,52.9,49.6,46.3,44.3,42.0,80,73,66,30.34,30.29,20,5,20,0.13
2013-4-20,67.3,53.8,48.4,61.0,40.1,1.7,100,65,12,30.36,30.27,15,4,15,0.04
2013-4-21,76.1,56.8,47.1,75.9,41.4,-3.9,100,63,10,30.31,29.88,13,3,13,0.00
2013-4-22,81.0,63.5,42.8,80.8,56.4,-0.2,100,85,10,30.28,30.18,20,6,20,0.00
2013-4-23,80.1,55.6,33.6,40.5,30.5,-0.1,89,48,10,30.23,30.11,22,5,22,0.00
2013-4-24,93.9,60.0,34.0,93.7,52.6,13.2,100,80,10,30.15,29.91,15,3,15,0.00
2013-4-25,78.8,54.8,34.9,44.4,35.5,19.7,88,56,11,30.15,29.95,13,3,13,0.00
2013-4-26,77.5,55.4,47.3,44.1,34.9,7.5,80,55,10,30.29,30.14,15,4,15,0.00
2013-4-27,72.0,54.8,46.0,63.2,28.3,-2.9,79,46,10,30.31,30.11,15,4,15,0.00
2013-4-28,72.3,56.6,47.1,67.2,25.6,0.5,86,37,10,30.30,30.06,18,3,18,0.00
2013-4-29,68.4,54.8,42.8,45.2,21.4,-10.2,77,38,10,30.22,30.15,20,5,20,0.09
2013-4-30,67.3,49.7,30.9,67.3,30.3,-11.6,100,61,10,30.38,30.22,23,5,23,0.00
2013-5-1,77.4,53.5,30.6,33.8,20.7,1.1,87,35,15,30.41,30.31,17,4,17,0.00
2013-5-2,86.0,58.4,35.2,74.6,42.4,-5.0,81,60,10,30.45,30.21,23,5,23,0.00
2013-5-3,78.8,57.7,36.9,34.0,17.8,-2.9,71,29,10,30.26,30.05,20,4,20,0.00
2013-5-4,96.4,69.1,36.7,37.4,26.2,3.1,71,28,10,30.32,29.68,15,4,15,0.22
2013-5-5,95.9,67.8,53.4,35.1,13.4,-0.8,20,12,10,29.83,29.58,34,8,34,0.00
2013-5-6,82.4,61.1,45.5,39.5,25.1,0.2,62,31,11,29.96,29.82,15,5,15,0.00
2013-5-7,67.1,55.0,51.6,38.6,22.0,0.2,61,33,10,30.23,29.93,15,6,15,0.19
2013-5-8,72.7,58.0,49.5,44.5,21.8,-2.6,74,31,11,30.17,30.05,15,3,15,0.00
2013-5-9,75.9,58.2,51.3,34.9,18.1,-1.2,53,25,10,30.38,30.10,15,4,15,0.00
2013-5-10,71.8,55.9,50.2,56.7,22.2,-1.2,100,35,10,30.25,30.18,13,3,13,0.00
2013-5-11,87.3,62.9,43.0,87.3,52.4,2.5,100,73,10,30.25,30.05,13,3,13,0.01
2013-5-12,72.9,60.8,53.1,42.8,24.2,2.8,61,31,10,30.14,30.08,22,5,22,0.01
2013-5-13,68.2,57.4,46.4,46.0,32.3,4.2,70,45,10,30.22,30.07,23,6,23,0.00
2013-5-14,70.9,57.7,45.0,70.5,44.1,-3.0,100,70,10,30.21,30.12,20,4,20,0.00
2013-5-15,69.4,55.0,41.2,38.6,19.7,0.4,62,33,10,30.25,29.99,18,4,18,0.04
2013-5-16,68.4,56.4,51.1,44.9,25.8,-20.6,69,39,9,30.01,28.73,18,5,18,0.07
2013-5-17,68.4,56.3,44.2,45.1,24.5,-0.6,72,38,12,30.12,29.99,16,3,16,0.13
2013-5-18,77.2,52.8,42.8,42.4,26.6,1.4,69,44,10,30.32,29.86,26,5,26,0.08
2013-5-19,68.4,57.4,48.4,43.6,25.1,-3.3,71,37,13,30.41,30.30,21,5,21,0.09
2013-5-20,74.5,56.8,41.4,41.1,22.4,-3.4,73,33,10,30.32,29.98,23,4,23,0.00
2013-5-21,59.7,49.9,39.6,39.1,27.3,-5.8,68,45,11,30.14,29.85,23,6,23,0.54
2013-5-22,51.6,45.8,39.4,43.3,36.6,29.3,74,70,61,30.08,30.03,20,6,20,1.02
2013-5-23,63.0,51.5,41.9,42.0,28.4,-1.2,83,50,10,30.06,30.00,21,6,21,0.08
2013-5-24,61.0,51.1,43.0,61.0,35.6,5.8,100,60,15,30.10,30.07,10,2,10,0.02
2013-5-25,68.4,51.6,42.3,68.2,40.5,2.1,100,71,10,30.09,29.95,14,3,14,0.14
2013-5-26,63.9,56.8,51.4,44.6,22.1,0.7,75,33,10,30.08,29.98,21,10,21,0.02
2013-5-27,61.7,55.1,52.0,46.0,41.7,26.4,69,62,27,30.19,29.77,30,10,30,0.54
2013-5-28,66.6,56.5,51.6,59.5,34.9,1.3,100,50,14,29.98,29.73,21,8,21,0.15
2013-5-29,63.0,56.2,48.6,45.6,27.6,0.7,71,41,10,30.09,29.72,33,8,33,0.17
2013-5-30,69.8,51.9,32.0,99.9,39.1,-2.6,100,62,10,30.25,30.08,9,2,9,0.00
2013-5-31,72.7,57.4,40.5,64.0,23.0,-2.1,100,39,10,30.29,30.22,21,4,21,0.00
2013-6-1,76.3,60.7,46.0,40.4,24.2,1.4,66,33,11,30.24,30.06,15,4,15,0.00
2013-6-2,70.7,59.9,52.3,70.2,44.7,-0.2,100,67,10,30.06,30.03,21,6,21,0.08
2013-6-3,72.9,60.4,45.1,43.2,19.2,-0.4,68,28,10,30.13,29.99,24,5,24,0.00
2013-6-4,77.4,61.3,43.0,77.4,47.7,2.1,100,66,10,30.02,29.86,18,4,18,0.00
2013-6-5,75.7,60.1,51.4,66.9,42.5,3.5,74,57,10,30.08,30.00,20,5,20,0.00
2013-6-6,73.0,59.0,50.2,41.7,24.4,1.0,64,33,10,30.08,30.02,20,6,20,0.00
2013-6-7,81.0,63.4,49.1,41.0,28.5,2.3,64,33,10,30.12,30.07,21,5,21,0.00
2013-6-8,80.1,63.8,51.4,77.5,42.7,-0.7,100,59,10,30.11,30.03,18,5,18,0.00
2013-6-9,72.0,61.1,50.4,52.9,17.3,-2.2,100,26,10,30.04,29.97,26,8,26,0.00
2013-6-10,71.4,59.1,42.1,51.8,16.6,-3.6,100,22,10,30.03,29.94,21,6,21,0.00
2013-6-11,71.6,59.1,46.0,42.3,16.0,-2.2,60,23,11,30.16,30.02,17,4,17,0.00
2013-6-12,70.2,55.2,42.8,41.9,33.4,14.3,67,46,21,30.22,30.14,16,3,16,0.00
2013-6-13,73.0,57.5,44.2,59.0,22.2,-1.2,100,34,10,30.31,30.21,13,3,13,0.05
2013-6-14,64.2,45.2,39.9,37.9,28.6,5.0,66,54,11,30.29,29.96,4,0,4,0.00
2013-6-15,71.4,61.3,48.2,71.4,54.0,0.3,100,84,10,30.06,29.93,10,4,10,0.00
2013-6-16,69.4,51.8,42.3,67.8,26.1,3.4,100,46,10,30.10,30.04,10,2,10,0.00
2013-6-17,74.1,61.6,43.7,43.4,26.2,5.0,66,31,14,30.07,30.02,25,9,25,0.05
2013-6-18,70.3,57.2,44.4,69.4,30.1,1.3,100,45,10,30.03,29.97,25,7,25,0.18
2013-6-19,70.7,58.4,51.4,70.7,45.7,2.1,100,69,10,30.13,29.94,20,4,20,0.04
2013-6-20,73.6,58.4,47.8,67.1,30.1,4.7,100,39,12,30.13,30.06,12,2,12,0.00
2013-6-21,77.4,62.5,44.6,44.7,19.9,0.0,65,27,10,30.14,30.09,16,4,16,0.00
2013-6-22,85.5,64.4,45.9,45.4,24.0,5.9,66,30,10,30.10,29.85,15,3,15,0.00
2013-6-23,72.5,62.9,55.6,52.1,41.8,9.3,68,50,10,29.85,29.63,21,5,21,0.17
2013-6-24,70.5,59.4,54.0,47.4,35.0,3.8,69,46,10,29.73,29.65,23,3,23,0.14
2013-6-25,69.8,61.7,56.8,51.0,31.7,5.6,71,42,10,30.05,29.66,26,11,26,0.48
2013-6-26,78.3,66.5,59.5,75.4,38.1,8.9,100,47,10,30.19,29.83,15,5,15,0.08
2013-6-27,81.0,67.1,55.4,80.8,39.4,7.2,100,49,10,30.14,29.97,17,4,17,0.00
2013-6-28,89.6,70.9,52.9,89.6,59.9,7.1,100,75,11,30.27,30.05,12,2,12,0.00
2013-6-29,93.9,71.7,53.1,49.1,33.0,7.8,69,32,12,30.10,29.94,17,3,17,0.00
2013-6-30,84.0,69.4,56.5,50.1,32.3,6.1,64,35,10,29.97,29.91,13,3,13,0.00
2013-7-1,80.6,67.5,55.2,50.6,30.1,7.2,68,34,10,30.04,29.93,16,4,16,0.00
2013-7-2,78.3,65.8,59.4,48.4,31.1,6.0,65,35,10,30.08,29.98,23,6,23,0.00
2013-7-3,79.2,66.8,57.2,67.0,47.7,3.1,68,53,11,30.11,30.05,21,6,21,0.00
2013-7-4,75.9,64.6,50.4,45.3,19.6,3.1,64,23,10,30.11,30.02,25,6,25,0.00
2013-7-5,77.7,65.4,50.4,40.5,18.1,5.1,57,19,12,30.04,29.93,24,6,24,0.00
2013-7-6,78.1,64.4,48.2,39.2,15.4,0.4,56,18,10,29.95,29.86,25,6,25,0.00
2013-7-7,76.5,64.5,57.7,35.3,18.2,1.8,24,18,10,29.98,29.70,23,6,23,0.00
2013-7-8,78.3,64.6,48.2,37.5,17.9,2.8,57,21,10,30.02,29.97,20,5,20,0.00
2013-7-9,77.7,61.6,51.1,43.1,28.7,4.2,63,36,12,30.08,30.01,22,5,22,0.00
2013-7-10,73.4,62.3,53.1,37.6,17.0,-1.2,51,22,10,30.08,29.97,23,7,23,0.00
2013-7-11,77.0,62.2,44.4,71.2,22.6,-0.2,100,31,10,30.03,29.96,20,5,20,0.00
2013-7-12,74.3,61.3,44.8,36.9,15.7,-0.2,55,22,10,30.07,29.99,25,5,25,0.00
2013-7-13,85.6,61.4,42.6,70.5,33.4,-0.4,100,42,10,30.08,29.99,24,5,24,0.05
2013-7-14,75.2,61.1,50.2,72.7,34.9,-1.5,100,51,10,30.05,29.96,24,6,24,0.00
2013-7-15,73.8,60.5,48.7,72.5,44.2,2.1,100,64,12,29.99,29.79,16,4,16,0.00
2013-7-16,65.1,56.4,48.9,37.9,19.1,1.8,59,29,10,30.04,29.80,15,4,15,0.00
2013-7-17,76.8,62.0,48.7,73.6,41.1,-1.8,100,53,10,30.17,30.04,15,3,15,0.00
2013-7-18,76.8,60.8,44.8,76.8,47.9,0.4,100,70,10,30.17,30.09,17,4,17,0.00
2013-7-19,74.3,62.4,54.9,29.2,13.8,0.9,36,17,10,30.13,30.04,24,7,24,0.00
2013-7-20,74.8,61.2,54.1,31.5,13.7,1.6,42,17,10,30.08,29.94,24,7,24,0.00
2013-7-21,75.6,62.6,53.2,75.0,46.4,2.8,100,63,10,29.96,29.86,21,6,21,0.00
2013-7-22,79.2,62.7,52.5,40.2,22.4,0.7,55,27,10,29.98,29.91,20,6,20,0.00
2013-7-23,71.6,57.8,49.6,41.5,22.2,0.4,64,33,10,30.05,29.95,15,4,15,0.00
2013-7-24,72.0,57.3,50.2,72.0,39.4,-1.1,100,56,10,30.04,29.98,24,4,24,0.00
2013-7-25,78.1,59.7,49.5,38.0,19.1,-1.4,59,28,10,30.04,29.97,20,5,20,0.00
2013-7-26,73.2,59.1,49.5,73.0,40.9,-0.8,100,62,10,30.14,30.02,21,5,21,0.00
2013-7-27,77.4,61.9,45.7,65.5,23.5,0.6,100,32,10,30.14,30.02,25,5,25,0.00
2013-7-28,76.3,61.4,48.9,57.6,22.1,0.0,100,27,11,30.04,29.95,21,4,21,0.00
2013-7-29,76.5,61.5,48.0,71.1,33.5,1.1,100,45,10,30.06,29.94,17,4,17,0.00
2013-7-30,74.7,62.6,57.9,21.3,6.0,1.8,24,11,10,30.13,30.06,15,4,15,0.00
2013-7-31,66.2,60.9,57.9,66.2,39.9,2.7,100,56,10,30.12,30.07,8,2,8,0.00
2013-8-1,75.6,62.1,55.9,46.7,27.7,2.0,65,35,10,30.13,30.07,15,3,15,0.01
2013-8-2,78.6,65.9,54.1,44.7,27.3,2.3,58,28,10,30.12,30.03,20,4,20,0.00
2013-8-3,80.1,64.2,55.2,45.8,30.7,2.4,64,34,11,30.06,29.96,21,5,21,0.00
2013-8-4,74.8,60.2,53.6,42.2,26.8,2.9,60,35,10,30.00,29.94,17,5,17,0.01
2013-8-5,74.8,59.9,52.9,41.4,24.4,-0.2,60,33,10,30.00,29.92,16,4,16,0.01
2013-8-6,74.8,59.1,51.6,38.0,21.7,0.4,54,28,10,30.01,29.94,13,3,13,0.00
2013-8-7,65.1,57.3,54.1,45.5,31.1,2.5,67,43,10,30.09,29.99,13,3,13,0.01
2013-8-8,75.2,61.4,54.5,49.5,34.5,5.2,69,42,10,30.07,29.94,15,3,15,0.04
2013-8-9,76.8,61.5,55.0,44.7,30.1,4.8,63,38,11,29.98,29.87,17,4,17,0.00
2013-8-10,69.4,61.2,55.9,53.9,33.8,4.8,72,43,10,30.06,29.95,8,2,8,0.00
2013-8-11,77.2,62.9,51.1,77.2,51.1,2.5,100,70,12,30.06,29.95,15,3,15,0.02
2013-8-12,78.3,62.0,50.4,44.2,24.1,2.5,64,32,10,30.07,30.02,17,4,17,0.00
2013-8-13,83.5,62.1,45.1,44.4,24.3,2.4,68,32,10,30.07,29.95,15,2,15,0.00
2013-8-14,83.3,65.7,48.4,44.8,26.4,9.6,61,29,12,30.13,29.91,23,4,23,0.02
2013-8-15,84.9,68.6,62.2,49.5,29.6,7.5,57,29,10,30.08,29.90,13,2,13,0.02
2013-8-16,86.0,68.4,55.0,43.7,28.2,4.1,50,27,12,30.05,29.93,14,2,14,0.00
2013-8-17,81.9,66.2,51.6,81.9,52.2,5.6,100,69,10,30.08,30.03,14,4,14,0.00
2013-8-18,85.3,67.9,53.2,84.9,56.0,5.9,100,71,10,30.08,30.01,17,4,17,0.00
2013-8-19,83.5,67.2,58.3,75.2,35.1,5.4,100,41,10,30.08,30.01,23,5,23,0.00
2013-8-20,74.8,55.2,48.9,74.3,34.5,-0.4,100,51,10,30.05,29.92,9,1,9,0.00
2013-8-21,84.6,63.9,45.1,36.5,21.3,1.7,59,24,10,29.94,29.84,11,2,11,0.00
2013-8-22,68.7,60.1,53.4,48.4,42.9,30.3,70,54,40,30.07,29.88,10,3,10,0.01
2013-8-23,77.7,63.9,53.1,50.4,29.7,3.8,74,37,11,29.98,29.88,10,2,10,0.00
2013-8-24,77.7,62.3,51.8,72.0,37.0,5.0,100,48,10,30.02,29.84,15,3,15,0.00
2013-8-25,66.6,58.0,50.0,48.5,36.9,7.0,68,48,10,29.92,29.87,7,1,7,0.01
2013-8-26,80.6,65.6,51.1,80.6,55.7,7.9,100,77,10,29.93,29.88,33,6,33,0.00
2013-8-27,84.9,68.4,59.5,46.1,31.9,10.4,57,32,10,29.91,29.80,20,3,20,0.02
2013-8-28,82.9,67.3,56.1,55.0,32.3,11.0,68,36,10,29.87,29.79,21,4,21,0.00
2013-8-29,71.6,64.6,61.2,54.1,49.5,16.2,69,59,16,30.06,29.80,23,4,23,0.01
2013-8-30,85.3,68.6,57.0,63.9,51.1,10.0,75,57,10,30.09,29.95,14,3,14,0.05
2013-8-31,75.0,61.1,56.1,54.0,43.7,13.9,75,58,10,30.01,29.88,14,4,14,0.00
2013-9-1,86.7,67.7,55.2,53.8,40.0,15.9,72,45,10,29.91,29.77,24,7,24,0.00
2013-9-2,86.5,67.2,53.4,55.3,45.9,7.5,71,51,5,31.75,29.83,27,7,27,0.00
2013-9-3,81.1,62.2,49.5,51.1,41.3,16.8,73,52,10,29.99,29.91,23,4,23,0.00
2013-9-4,62.8,56.7,54.3,48.0,46.1,43.9,72,68,50,30.03,29.97,2,0,2,0.00
2013-9-5,69.3,62.7,59.4,53.6,50.9,47.8,72,66,49,30.11,29.99,6,2,6,0.00
2013-9-6,81.9,65.8,55.4,59.8,46.1,26.2,78,54,13,30.15,30.05,15,3,15,0.00
2013-9-7,84.2,63.6,50.9,60.4,47.0,40.3,80,58,22,30.05,29.90,15,3,15,0.00
2013-9-8,82.9,66.7,58.6,56.8,51.4,46.0,77,61,29,29.99,29.90,15,4,15,0.00
2013-9-9,84.6,66.6,55.2,53.7,49.1,42.1,77,57,23,29.95,29.83,14,4,14,0.00
2013-9-10,82.0,63.7,53.4,56.8,47.2,36.8,78,59,21,29.85,29.68,13,4,82,0.00
2013-9-11,75.4,62.7,56.7,54.0,51.4,48.8,77,67,44,29.96,29.82,21,4,21,0.00
2013-9-12,71.6,63.6,60.3,54.4,52.0,48.3,78,67,47,29.97,29.85,10,2,10,0.00
2013-9-13,72.5,62.6,58.6,99.9,53.3,44.6,100,67,47,30.08,29.83,13,3,13,0.00
2013-9-14,67.5,57.4,58.1,99.9,55.3,49.2,100,73,57,29.78,29.76,11,3,11,0.00
2013-9-15,67.3,61.4,58.1,53.9,49.9,46.3,78,67,49,29.89,29.74,22,4,22,0.00
2013-9-16,83.3,64.1,56.7,52.5,47.8,35.5,75,59,21,29.96,29.85,13,2,13,0.00
2013-9-17,77.0,62.4,52.0,52.2,47.9,32.4,75,61,20,30.03,29.84,13,4,13,0.00
2013-9-18,79.5,60.1,48.7,52.6,44.5,30.1,79,60,18,30.06,29.93,16,3,16,0.00
2013-9-19,83.1,57.3,42.4,52.0,41.2,33.9,84,59,21,30.02,29.78,13,2,13,0.00
2013-9-20,64.4,55.2,45.0,54.2,46.4,37.0,81,73,48,29.78,29.63,18,2,18,0.00
2013-9-21,71.2,59.1,51.8,54.2,47.8,43.1,78,67,45,29.82,29.64,21,4,21,0.00
2013-9-22,63.9,58.3,53.2,53.9,49.9,45.5,81,74,53,29.90,29.73,30,8,30,0.00
2013-9-23,71.4,59.5,52.7,49.0,30.2,4.5,80,43,10,29.99,29.89,17,4,17,0.00
2013-9-24,68.4,57.1,46.6,46.2,31.3,4.1,70,44,10,29.96,29.88,21,5,21,0.00
2013-9-25,67.5,52.3,44.1,46.5,37.1,29.8,85,58,30,30.05,29.88,15,3,15,0.00
2013-9-26,73.9,52.6,41.2,48.0,27.2,7.7,86,47,10,30.17,30.03,13,2,13,0.00
2013-9-27,59.9,49.1,39.2,45.5,33.6,21.6,75,55,34,30.18,29.99,13,3,13,0.00
2013-9-28,63.9,60.4,53.6,63.9,32.4,5.3,100,39,10,29.99,29.60,46,20,46,1.61
2013-9-29,63.0,58.4,53.8,46.2,36.7,13.7,61,45,19,29.75,29.55,47,21,47,3.91
2013-9-30,66.2,56.3,49.5,39.8,15.7,-1.9,68,24,10,30.02,29.73,21,6,21,0.09
2013-10-1,72.1,54.0,41.0,50.9,41.4,25.7,85,64,32,30.18,30.00,14,3,14,0.01
2013-10-2,64.8,47.2,35.4,45.8,29.5,0.3,81,55,14,30.19,30.09,15,2,15,0.31
2013-10-3,72.9,51.5,41.4,42.4,19.6,-11.3,77,33,10,30.34,30.19,12,2,12,0.01
2013-10-4,84.2,52.2,35.6,32.2,5.2,-15.1,53,17,10,30.35,30.23,12,2,12,0.00
2013-10-5,86.2,55.1,39.9,38.7,14.6,-11.7,65,25,10,30.23,30.07,10,2,10,0.00
2013-10-6,81.3,53.3,36.7,55.4,15.8,-14.9,100,34,10,30.07,29.98,29,4,29,0.01
2013-10-7,72.5,55.9,45.3,72.1,44.5,-1.2,100,80,10,30.16,30.00,13,2,13,0.18
2013-10-8,59.4,50.9,44.4,48.6,27.6,-6.4,100,55,10,30.17,29.99,12,2,12,0.18
2013-10-9,72.9,51.5,39.9,45.3,7.2,-8.5,100,22,10,30.00,29.93,12,2,12,0.01
2013-10-10,73.8,56.2,41.0,73.8,51.4,-8.3,100,92,10,30.07,29.93,15,3,15,0.00
2013-10-11,69.6,53.3,44.4,69.6,53.3,44.4,100,100,100,30.10,30.06,14,2,14,0.00
2013-10-12,68.2,50.1,41.7,46.6,10.7,-10.2,100,26,10,30.10,30.02,12,1,12,0.04
2013-10-13,72.7,49.4,35.1,72.0,24.8,-16.2,100,51,10,30.22,29.73,14,2,14,0.01
2013-10-14,77.5,50.2,36.0,77.5,26.2,-14.5,100,50,10,30.25,30.17,7,2,7,0.01
2013-10-15,81.5,51.5,35.8,81.3,32.7,-15.6,100,59,10,30.18,30.03,10,2,10,0.01
2013-10-16,77.7,50.5,36.9,41.2,13.5,-13.4,100,28,10,30.11,30.02,13,2,13,0.00
2013-10-17,76.5,53.9,41.9,63.0,22.6,-5.8,100,44,10,30.32,30.05,9,2,9,0.01
2013-10-18,83.5,53.6,37.9,43.2,25.1,-9.9,100,47,10,30.34,29.98,9,2,9,0.00
2013-10-19,75.6,51.3,38.8,52.5,3.4,-13.2,100,21,10,30.11,30.01,10,2,10,0.01
2013-10-20,70.0,53.2,48.2,52.2,17.3,-5.1,100,40,10,30.08,29.99,10,2,10,0.00
2013-10-21,66.4,51.5,45.5,46.2,-0.7,-8.1,100,14,10,30.00,29.93,10,2,10,0.01
2013-10-22,55.9,51.6,49.6,0.0,-3.2,-4.8,12,10,10,30.00,29.96,6,1,6,0.01
2013-10-23,55.8,51.0,48.2,2.0,-3.5,-6.0,13,10,10,29.99,29.93,7,1,7,0.02
2013-10-24,55.0,51.9,49.5,52.5,11.5,-6.7,100,34,10,30.08,29.95,8,1,8,0.13
2013-10-25,58.1,53.1,51.3,52.0,14.3,-3.6,100,37,10,30.18,30.08,7,1,7,0.01
2013-10-26,69.3,53.9,45.3,45.5,2.7,-7.9,100,17,10,30.17,30.14,12,2,12,0.01
2013-10-27,59.4,52.2,44.1,59.2,52.2,43.9,100,100,100,30.08,29.80,18,3,18,0.01
2013-10-28,70.5,50.0,36.9,70.5,40.1,-9.6,100,83,10,29.82,29.70,10,2,10,0.01
2013-10-29,68.5,43.2,30.7,42.6,5.0,-17.7,100,29,11,30.03,29.82,10,2,10,0.00
2013-10-30,68.9,44.5,29.8,52.6,27.9,-18.4,74,53,13,30.17,30.03,8,1,8,0.00
2013-10-31,65.3,53.8,44.2,65.3,48.4,29.5,100,84,56,30.20,30.15,9,1,9,0.02
2013-11-1,77.7,54.5,41.5,52.9,34.0,-6.2,100,68,10,30.19,29.92,9,2,9,0.01
2013-11-2,67.1,52.0,42.3,67.1,52.0,42.3,100,100,100,30.15,29.83,21,6,21,0.02
2013-11-3,58.6,46.0,37.6,58.6,40.0,-12.1,100,89,10,30.21,30.14,8,1,8,0.24
2013-11-4,52.2,47.2,39.2,52.0,47.2,39.2,100,100,100,30.17,29.94,10,2,10,0.13
2013-11-5,59.5,54.4,50.7,59.5,41.2,-4.6,100,78,10,30.23,29.99,15,5,15,0.30
2013-11-6,66.0,57.2,54.3,29.0,5.2,-0.9,36,13,10,30.24,30.09,8,2,8,0.02
2013-11-7,59.0,52.7,44.4,59.0,35.8,-1.1,100,73,10,30.15,29.98,31,6,31,0.72
2013-11-8,65.1,48.3,37.4,45.0,14.7,-10.0,100,42,10,30.18,30.03,10,2,10,0.01
2013-11-9,64.4,47.5,36.0,64.2,44.0,-7.8,100,94,10,30.04,29.94,6,1,6,0.01
2013-11-10,73.2,51.2,38.7,56.3,33.1,-6.8,100,71,10,30.02,29.96,13,2,13,0.00
2013-11-11,70.2,52.9,43.0,48.6,26.1,-5.5,100,51,10,30.02,29.92,6,1,6,0.01
2013-11-12,70.9,55.9,51.3,58.8,19.4,-2.2,100,39,10,30.38,29.99,12,2,12,0.12
2013-11-13,73.9,52.3,37.9,52.0,20.2,-10.3,100,45,10,30.40,30.22,13,2,13,0.01
2013-11-14,55.9,45.4,36.0,50.2,13.7,-11.9,100,45,10,30.24,30.07,6,1,6,0.05
2013-11-15,55.9,48.3,44.1,50.0,32.8,-6.7,100,75,10,30.07,29.73,14,3,14,0.02
2013-11-16,59.7,51.0,45.7,59.5,51.0,45.7,100,100,100,29.92,29.68,17,4,17,0.05
2013-11-17,60.6,50.2,43.5,60.4,50.2,43.5,100,100,100,30.02,29.96,15,3,15,0.05
2013-11-18,55.6,50.8,44.2,55.6,50.8,44.2,100,100,100,29.98,29.74,26,6,26,0.52
2013-11-19,57.4,52.4,42.6,57.4,52.4,42.4,100,100,100,29.93,29.74,29,9,29,0.52
2013-11-20,59.4,42.3,28.4,43.2,19.6,-6.0,100,54,16,30.22,29.93,9,2,9,0.00
2013-11-21,68.0,37.4,25.0,24.5,8.9,-21.4,84,41,10,30.40,30.07,10,2,10,0.01
2013-11-22,70.3,40.6,26.2,35.5,14.7,-23.1,69,39,10,30.40,30.17,8,2,8,0.00
2013-11-23,82.0,45.0,29.1,28.6,14.1,-18.9,73,36,10,30.17,29.97,13,2,13,0.00
2013-11-24,76.1,42.1,28.4,75.9,20.7,-21.5,100,60,10,30.20,29.95,10,1,10,0.00
2013-11-25,70.9,40.7,27.7,44.5,7.6,-22.1,100,33,10,30.27,30.19,8,1,8,0.00
2013-11-26,68.4,42.6,30.0,68.0,25.7,-11.0,100,65,13,30.21,29.96,5,1,5,0.00
2013-11-27,77.2,43.7,31.1,31.7,0.4,-8.6,46,17,13,29.96,29.82,4,1,4,0.01
2013-11-28,78.3,44.7,32.2,41.4,-3.6,-17.2,100,16,10,30.12,29.89,8,1,8,0.00
2013-11-29,64.6,44.4,29.1,53.1,11.1,-20.6,100,35,10,30.30,30.06,8,1,8,0.06
2013-11-30,65.1,47.9,40.3,65.1,38.5,14.8,100,76,35,30.36,30.28,8,1,8,0.01
2013-12-1,55.6,53.2,49.5,55.6,53.2,47.1,100,100,100,30.33,29.85,25,9,25,0.08
2013-12-2,53.6,46.0,32.7,53.4,35.3,-11.3,100,79,10,30.12,29.97,29,7,29,0.85
2013-12-3,57.4,37.3,28.8,56.8,32.7,-14.2,100,90,12,30.15,30.04,8,1,8,0.91
2013-12-4,57.2,31.8,22.8,57.2,20.5,-22.1,100,75,10,30.25,30.15,7,1,7,0.01
2013-12-5,54.5,30.7,19.9,54.5,14.4,-18.6,100,58,10,30.33,30.05,9,2,9,0.89
2013-12-6,51.8,36.8,31.3,51.8,25.4,2.2,100,72,22,30.06,29.77,17,3,17,0.24
2013-12-7,46.9,30.0,21.4,46.9,25.5,-0.3,100,88,27,30.32,29.96,9,1,9,0.00
2013-12-8,53.2,29.9,18.0,53.2,29.9,18.0,100,100,100,30.52,30.10,8,2,8,0.00
2013-12-9,60.1,31.7,19.0,59.7,7.5,-28.6,100,47,10,30.52,30.43,7,2,7,0.90
2013-12-10,53.2,32.5,21.7,6.6,-4.4,-25.4,50,22,12,30.46,30.18,5,1,5,0.00
2013-12-11,67.8,35.3,24.4,67.8,10.2,-17.2,100,41,13,30.28,29.83,4,1,4,0.00
2013-12-12,47.5,35.1,25.0,40.5,-6.0,-19.1,100,20,11,30.20,30.08,15,1,15,0.25
2013-12-13,61.2,44.6,37.8,50.2,14.1,-12.3,100,41,10,30.35,30.19,5,1,5,0.01
2013-12-14,54.0,40.7,31.5,42.6,12.2,-14.9,100,40,11,30.41,30.33,8,2,8,0.00
2013-12-15,69.1,43.8,34.2,42.8,24.1,-6.1,100,62,12,30.42,30.34,8,1,8,0.01
2013-12-16,72.5,43.7,30.4,49.8,9.6,-16.3,100,34,10,30.36,30.10,10,2,10,0.01
2013-12-17,63.0,42.1,29.1,42.8,7.3,-20.8,100,31,10,30.17,30.06,8,2,8,0.00
2013-12-18,50.4,44.0,39.9,41.2,8.1,-12.1,100,40,10,30.13,30.00,15,2,15,0.00
2013-12-19,59.2,36.7,27.0,17.8,-6.5,-20.7,53,17,10,30.24,30.09,10,2,10,0.01
2013-12-20,49.8,41.0,30.0,49.8,14.5,-6.3,100,41,20,30.19,29.98,14,3,14,0.51
2013-12-21,59.2,49.4,45.1,59.0,49.4,45.1,100,100,100,30.24,30.03,6,2,6,0.08
2013-12-22,65.8,48.7,43.5,65.8,48.7,43.5,100,100,100,30.40,30.23,8,1,8,0.01
2013-12-23,52.9,47.3,42.1,52.9,47.3,42.1,100,100,100,30.47,30.32,7,1,7,0.04
2013-12-24,68.4,44.3,32.2,46.2,25.9,-10.8,100,63,13,30.49,30.32,10,2,10,0.01
2013-12-25,68.9,39.7,28.9,24.0,10.7,-16.2,71,39,10,30.35,30.24,6,1,6,0.00
2013-12-26,73.6,41.0,29.3,32.1,-2.0,-20.7,56,18,10,30.26,30.12,4,1,4,0.01
2013-12-27,58.5,39.4,30.7,49.8,8.1,-7.6,100,37,13,30.30,30.11,17,2,17,0.00
2013-12-28,69.3,44.5,32.5,48.2,-2.3,-18.2,100,17,10,30.40,30.30,8,2,8,0.00
2013-12-29,65.1,41.0,29.1,30.8,6.3,-20.1,67,27,10,30.34,30.12,6,2,6,0.00
2013-12-30,55.9,39.4,32.0,37.5,6.4,-14.8,65,29,10,30.19,30.11,5,1,4,0.00
2013-12-31,63.0,39.8,33.4,62.8,14.7,-15.6,100,51,11,30.27,30.19,10,1,10,0.00
2014-1-1,60.1,40.5,29.8,42.1,2.3,-18.4,100,29,10,30.25,30.09,6,1,6,0.00
2014-1-2,61.7,42.5,31.8,26.4,9.5,-11.2,26,26,12,30.16,30.06,4,1,4,0.00